Time;durP1;ratioP1;P1;durP2;ratioP2;P2;SDS_P1;SDS_P2;PMS_P1;PMS_P2;Temp;Humidity;BMP_temperature;BMP_pressure;BME280_temperature;BME280_humidity;BME280_pressure;Samples;Min_cycle;Max_cycle;Signal;HPM_P1;HPM_P2
2021/03/21 00:00:17;;;;;;;8.52;3.67;;;;;;;4.71;40.66;99659.50;5072733;28;20044;-59
2021/03/21 00:02:44;;;;;;;4.32;3.30;;;;;;;4.67;40.77;99655.50;5072706;28;20045;-59
2021/03/21 00:05:12;;;;;;;4.10;3.22;;;;;;;4.65;40.85;99652.16;5072320;28;20047;-60
2021/03/21 00:07:39;;;;;;;6.57;3.40;;;;;;;4.64;40.77;99653.97;5071047;28;20135;-59
2021/03/21 00:10:07;;;;;;;3.67;3.08;;;;;;;4.64;40.79;99651.34;5072508;28;20040;-57
2021/03/21 00:12:34;;;;;;;4.90;3.40;;;;;;;4.61;40.75;99651.63;5072413;28;20055;-58
2021/03/21 00:15:01;;;;;;;6.50;3.67;;;;;;;4.53;40.95;99655.84;5072167;28;20048;-60
2021/03/21 00:17:28;;;;;;;5.45;4.15;;;;;;;4.48;41.00;99643.16;5072413;28;20055;-62
2021/03/21 00:19:55;;;;;;;5.45;3.72;;;;;;;4.44;41.18;99641.78;5072422;28;20585;-61
2021/03/21 00:22:22;;;;;;;5.35;3.20;;;;;;;4.44;40.94;99639.97;5072397;28;20509;-60
2021/03/21 00:24:48;;;;;;;5.82;3.15;;;;;;;4.38;40.93;99630.06;5070893;28;20139;-61
2021/03/21 00:27:15;;;;;;;5.18;3.95;;;;;;;4.38;40.89;99629.22;5072090;28;20123;-60
2021/03/21 00:29:43;;;;;;;6.55;3.55;;;;;;;4.35;41.08;99630.31;5072378;28;20418;-62
2021/03/21 00:32:10;;;;;;;4.82;3.78;;;;;;;4.36;41.17;99631.97;5072284;28;20033;-60
2021/03/21 00:34:37;;;;;;;5.95;3.70;;;;;;;4.45;41.16;99625.13;5071855;28;20135;-61
2021/03/21 00:37:05;;;;;;;4.93;3.60;;;;;;;4.47;41.28;99626.63;5072134;28;20059;-60
2021/03/21 00:39:31;;;;;;;5.18;3.63;;;;;;;4.47;41.25;99617.94;5071952;28;20049;-59
2021/03/21 00:41:58;;;;;;;5.15;3.20;;;;;;;4.45;41.04;99604.19;5072130;28;20402;-60
2021/03/21 00:44:25;;;;;;;3.22;2.92;;;;;;;4.41;41.02;99600.16;5072140;28;20041;-60
2021/03/21 00:46:53;;;;;;;4.10;2.95;;;;;;;4.36;41.06;99597.09;5072058;28;20047;-62
2021/03/21 00:49:20;;;;;;;4.63;3.10;;;;;;;4.34;41.07;99596.44;5071789;28;20075;-58
2021/03/21 00:51:47;;;;;;;5.05;3.22;;;;;;;4.29;40.95;99593.38;5071599;28;20384;-61
2021/03/21 00:54:14;;;;;;;5.68;3.22;;;;;;;4.25;41.01;99592.81;5071804;28;20045;-60
2021/03/21 00:56:42;;;;;;;4.00;2.80;;;;;;;4.19;40.95;99593.34;5070629;28;20048;-62
2021/03/21 00:59:09;;;;;;;5.70;2.92;;;;;;;4.21;41.02;99594.88;5070457;28;20045;-60
2021/03/21 01:01:36;;;;;;;5.20;3.38;;;;;;;4.26;41.21;99597.09;5071904;28;20036;-59
2021/03/21 01:04:05;;;;;;;3.85;2.83;;;;;;;4.29;41.03;99593.38;5071739;28;20041;-60
2021/03/21 01:06:32;;;;;;;5.25;3.28;;;;;;;4.29;41.14;99596.81;5071682;28;20089;-60
2021/03/21 01:09:02;;;;;;;4.32;3.30;;;;;;;4.29;41.13;99591.59;5070502;28;20056;-62
2021/03/21 01:11:31;;;;;;;4.45;3.25;;;;;;;4.30;41.20;99589.81;5070618;28;20052;-60
2021/03/21 01:13:58;;;;;;;4.85;2.78;;;;;;;4.31;41.35;99586.22;5071706;28;20044;-61
2021/03/21 01:16:28;;;;;;;5.00;2.83;;;;;;;4.36;41.34;99576.97;5071643;28;20058;-61
2021/03/21 01:18:55;;;;;;;4.25;3.03;;;;;;;4.41;41.28;99566.13;5071586;28;20040;-59
2021/03/21 01:21:26;;;;;;;5.57;3.42;;;;;;;4.40;41.31;99560.03;5071551;28;20048;-61
2021/03/21 01:23:52;;;;;;;4.20;3.15;;;;;;;4.41;41.14;99559.09;5072015;28;20052;-61
2021/03/21 01:26:21;;;;;;;3.50;2.70;;;;;;;4.42;40.94;99544.22;5071632;28;20037;-60
2021/03/21 01:28:49;;;;;;;3.38;2.50;;;;;;;4.41;40.90;99553.03;5071448;28;20051;-62
2021/03/21 01:31:19;;;;;;;3.47;2.90;;;;;;;4.39;40.90;99547.94;5071529;28;20049;-61
2021/03/21 01:33:47;;;;;;;4.97;2.85;;;;;;;4.29;40.90;99546.28;5071596;28;20045;-61
2021/03/21 01:36:17;;;;;;;3.38;2.70;;;;;;;4.26;40.86;99552.59;5071299;28;20095;-63
2021/03/21 01:38:45;;;;;;;3.25;2.60;;;;;;;4.25;40.84;99550.94;5070490;28;20052;-63
2021/03/21 01:41:15;;;;;;;4.65;3.03;;;;;;;4.26;40.78;99555.22;5071641;28;20324;-61
2021/03/21 01:43:42;;;;;;;6.10;3.20;;;;;;;4.24;41.11;99546.66;5071652;28;20046;-63
2021/03/21 01:46:15;;;;;;;6.65;3.33;;;;;;;4.23;40.90;99532.75;5070808;28;20060;-61
2021/03/21 01:48:46;;;;;;;4.43;3.50;;;;;;;4.24;41.00;99530.94;5069954;28;20044;-61
2021/03/21 01:51:16;;;;;;;5.70;3.75;;;;;;;4.27;41.08;99524.63;5071427;28;20089;-61
2021/03/21 01:53:46;;;;;;;5.05;2.90;;;;;;;4.23;40.85;99517.03;5070243;28;20051;-62
2021/03/21 01:56:13;;;;;;;3.50;2.53;;;;;;;4.21;40.88;99526.81;5071516;28;20045;-62
2021/03/21 01:58:44;;;;;;;3.47;2.80;;;;;;;4.19;40.85;99528.72;5071475;28;20032;-59
2021/03/21 02:01:15;;;;;;;5.47;2.60;;;;;;;4.13;40.85;99526.66;5071253;28;20064;-61
2021/03/21 02:03:43;;;;;;;3.42;2.97;;;;;;;4.18;40.77;99534.13;5074386;28;20051;-59
2021/03/21 02:06:26;;;;;;;5.32;3.00;;;;;;;4.16;40.89;99526.41;5074744;28;20064;-60
2021/03/21 02:08:57;;;;;;;4.43;2.92;;;;;;;4.13;40.81;99518.00;5074684;28;20384;-59
2021/03/21 02:11:34;;;;;;;7.80;3.08;;;;;;;4.12;40.92;99517.16;5077537;28;20041;-60
2021/03/21 02:14:09;;;;;;;7.18;3.58;;;;;;;4.19;40.94;99517.44;5094981;28;20100;-62
2021/03/21 02:16:40;;;;;;;4.40;3.33;;;;;;;4.25;40.89;99522.16;5094037;28;20044;-61
2021/03/21 02:19:16;;;;;;;4.50;3.08;;;;;;;4.23;40.92;99519.66;5074432;28;20127;-61
2021/03/21 02:21:45;;;;;;;5.60;3.08;;;;;;;4.28;40.97;99523.66;5074828;28;20087;-61
2021/03/21 02:24:49;;;;;;;4.93;3.03;;;;;;;4.25;40.64;99516.91;5074502;28;20059;-61
2021/03/21 02:27:36;;;;;;;5.95;3.63;;;;;;;4.27;40.81;99516.78;5074364;28;20094;-59
2021/03/21 02:30:09;;;;;;;5.90;3.13;;;;;;;4.27;41.10;99508.91;5074473;28;20059;-62
2021/03/21 02:32:43;;;;;;;4.07;3.40;;;;;;;4.29;41.06;99505.22;5073203;28;20053;-60
2021/03/21 02:35:21;;;;;;;5.45;3.53;;;;;;;4.34;41.35;99489.09;5074290;28;20456;-59
2021/03/21 02:37:57;;;;;;;4.10;3.00;;;;;;;4.34;41.13;99496.94;5074302;28;20045;-59
2021/03/21 02:40:30;;;;;;;8.15;3.35;;;;;;;4.30;41.28;99499.00;5073025;28;20056;-59
2021/03/21 02:43:02;;;;;;;4.57;3.30;;;;;;;4.22;42.05;99506.72;5074454;28;20059;-58
2021/03/21 02:45:33;;;;;;;5.82;3.45;;;;;;;4.22;42.71;99501.47;5072850;28;20049;-58
2021/03/21 02:48:04;;;;;;;5.88;3.72;;;;;;;4.17;43.13;99499.25;5073949;28;20091;-60
2021/03/21 02:50:35;;;;;;;6.15;3.55;;;;;;;4.07;43.63;99501.00;5074071;28;20044;-59
2021/03/21 02:53:09;;;;;;;4.70;3.45;;;;;;;4.13;43.76;99492.66;5074071;28;20047;-61
2021/03/21 02:55:39;;;;;;;4.27;3.53;;;;;;;4.17;43.73;99488.81;5073926;28;20044;-58
2021/03/21 02:58:13;;;;;;;7.18;3.70;;;;;;;4.27;43.73;99503.69;5072871;28;20112;-60
2021/03/21 03:00:45;;;;;;;5.45;3.95;;;;;;;4.32;43.59;99507.53;5074017;28;20048;-61
2021/03/21 03:03:15;;;;;;;4.53;3.40;;;;;;;4.31;43.35;99507.69;5072773;28;20074;-63
2021/03/21 03:05:45;;;;;;;4.55;3.05;;;;;;;4.20;43.60;99504.25;5072522;28;20143;-61
2021/03/21 03:08:16;;;;;;;3.78;3.00;;;;;;;4.18;43.81;99510.56;5073603;28;20505;-59
2021/03/21 03:10:45;;;;;;;4.47;2.97;;;;;;;4.19;43.97;99499.13;5073766;28;20048;-61
2021/03/21 03:13:19;;;;;;;6.78;3.55;;;;;;;4.13;43.97;99500.50;5072391;28;20049;-60
2021/03/21 03:15:48;;;;;;;6.03;3.83;;;;;;;4.11;44.20;99496.34;5072959;28;20047;-60
2021/03/21 03:18:29;;;;;;;6.05;2.85;;;;;;;4.19;44.32;99480.81;5073312;28;20048;-61
2021/03/21 03:21:04;;;;;;;7.18;3.88;;;;;;;4.19;44.21;99486.84;5073478;28;20495;-58
2021/03/21 03:23:37;;;;;;;4.03;3.25;;;;;;;4.17;44.32;99478.34;5073538;28;20040;-60
2021/03/21 03:26:10;;;;;;;5.68;3.53;;;;;;;4.22;44.52;99462.22;5072024;28;20048;-60
2021/03/21 03:28:43;;;;;;;4.97;3.60;;;;;;;4.27;44.51;99459.19;5071797;28;20518;-58
2021/03/21 03:31:15;;;;;;;4.85;3.40;;;;;;;4.26;44.38;99463.59;5073185;28;20048;-61
2021/03/21 03:33:43;;;;;;;4.07;3.25;;;;;;;4.29;43.96;99449.44;5073312;28;20070;-59
2021/03/21 03:36:13;;;;;;;6.25;3.10;;;;;;;4.23;43.46;99445.53;5073056;28;20056;-60
2021/03/21 03:38:40;;;;;;;4.68;3.15;;;;;;;4.18;43.22;99442.53;5072978;28;20513;-60
2021/03/21 03:41:11;;;;;;;7.20;3.50;;;;;;;4.23;42.95;99435.91;5072945;28;20047;-58
2021/03/21 03:43:49;;;;;;;6.40;3.78;;;;;;;4.29;42.75;99428.50;5073086;28;20048;-60
2021/03/21 03:46:21;;;;;;;4.57;3.42;;;;;;;4.19;42.66;99421.44;5072870;28;20052;-60
2021/03/21 03:48:54;;;;;;;3.80;3.03;;;;;;;4.09;42.64;99418.00;5072609;28;20422;-61
2021/03/21 03:51:29;;;;;;;5.13;3.38;;;;;;;4.09;42.82;99410.16;5072780;28;20044;-61
2021/03/21 03:54:13;;;;;;;5.20;3.55;;;;;;;4.07;42.93;99404.22;5072890;28;20048;-61
2021/03/21 03:56:47;;;;;;;7.47;3.63;;;;;;;4.04;42.67;99401.88;5072833;28;20036;-62
2021/03/21 03:59:34;;;;;;;4.65;3.03;;;;;;;4.06;42.73;99396.50;5071399;28;20052;-61
2021/03/21 04:02:06;;;;;;;6.30;3.42;;;;;;;4.05;42.71;99403.53;5072726;28;20487;-60
2021/03/21 04:04:42;;;;;;;6.32;3.17;;;;;;;4.05;42.66;99395.69;5072699;28;20044;-58
2021/03/21 04:07:18;;;;;;;4.13;3.55;;;;;;;4.04;42.91;99391.41;5071185;28;20055;-61
2021/03/21 04:09:52;;;;;;;7.68;3.47;;;;;;;4.05;42.94;99402.72;5072657;28;20052;-60
2021/03/21 04:12:26;;;;;;;6.68;3.55;;;;;;;4.05;43.03;99408.75;5071400;28;20048;-60
2021/03/21 04:14:58;;;;;;;4.65;3.42;;;;;;;3.99;43.05;99419.75;5072443;28;20041;-61
2021/03/21 04:17:35;;;;;;;3.50;3.20;;;;;;;4.05;42.98;99423.66;5072816;28;20420;-58
2021/03/21 04:20:09;;;;;;;4.15;3.13;;;;;;;4.01;43.15;99423.09;5072398;28;20090;-61
2021/03/21 04:22:38;;;;;;;4.10;3.25;;;;;;;4.09;43.14;99417.19;5071274;28;20047;-61
2021/03/21 04:25:12;;;;;;;5.03;3.20;;;;;;;4.06;43.11;99418.25;5072057;28;20051;-60
2021/03/21 04:27:45;;;;;;;4.28;3.20;;;;;;;4.07;43.20;99411.22;5070317;28;20521;-61
2021/03/21 04:30:17;;;;;;;5.43;3.40;;;;;;;4.11;43.48;99410.00;5072219;28;20041;-60
2021/03/21 04:32:48;;;;;;;4.65;3.42;;;;;;;4.11;43.52;99420.47;5072319;28;20040;-61
2021/03/21 04:35:21;;;;;;;4.32;3.20;;;;;;;4.14;43.77;99417.59;5072010;28;20044;-60
2021/03/21 04:37:55;;;;;;;5.13;3.70;;;;;;;4.15;43.84;99419.22;5070821;28;20048;-60
2021/03/21 04:40:23;;;;;;;4.70;3.13;;;;;;;4.16;44.13;99432.19;5072101;28;20055;-61
2021/03/21 04:42:55;;;;;;;3.97;3.00;;;;;;;4.12;44.41;99428.19;5072059;28;20487;-60
2021/03/21 04:45:26;;;;;;;4.47;3.63;;;;;;;4.15;44.77;99432.31;5070722;28;20060;-61
2021/03/21 04:47:59;;;;;;;4.75;3.40;;;;;;;4.18;44.94;99421.59;5071933;28;20045;-60
2021/03/21 04:50:26;;;;;;;5.25;4.13;;;;;;;4.20;45.02;99430.09;5071987;28;20094;-60
2021/03/21 04:52:59;;;;;;;5.88;3.50;;;;;;;4.20;45.08;99414.41;5070736;28;20052;-60
2021/03/21 04:55:32;;;;;;;5.63;4.07;;;;;;;4.23;45.38;99411.53;5071851;28;20046;-62
2021/03/21 04:58:03;;;;;;;7.57;4.18;;;;;;;4.27;45.29;99419.94;5071770;28;20116;-62
2021/03/21 05:00:38;;;;;;;6.53;4.03;;;;;;;4.23;45.20;99422.00;5070621;28;20053;-61
2021/03/21 05:03:21;;;;;;;5.93;3.78;;;;;;;4.25;45.30;99416.63;5071993;28;20041;-61
2021/03/21 05:05:56;;;;;;;6.85;4.05;;;;;;;4.23;45.20;99425.44;5072050;28;20044;-61
2021/03/21 05:08:28;;;;;;;5.13;3.72;;;;;;;4.17;45.40;99422.56;5072121;28;20045;-61
2021/03/21 05:10:58;;;;;;;5.68;3.72;;;;;;;4.23;45.47;99417.56;5071876;28;20127;-61
2021/03/21 05:13:33;;;;;;;5.43;3.78;;;;;;;4.29;45.76;99413.59;5072465;28;20110;-61
2021/03/21 05:16:06;;;;;;;4.20;3.40;;;;;;;4.28;45.71;99409.31;5072327;28;20063;-62
2021/03/21 05:18:40;;;;;;;5.00;3.70;;;;;;;4.15;45.77;99412.22;5072482;28;20045;-60
2021/03/21 05:21:13;;;;;;;7.25;4.55;;;;;;;4.02;45.71;99418.66;5073149;28;20059;-61
2021/03/21 05:23:48;;;;;;;5.32;3.40;;;;;;;4.07;45.82;99411.22;5073375;28;20045;-62
2021/03/21 05:26:22;;;;;;;9.95;4.72;;;;;;;4.00;45.99;99412.72;5072854;28;20041;-61
2021/03/21 05:28:57;;;;;;;5.73;4.00;;;;;;;4.07;46.04;99403.38;5072347;28;20040;-60
2021/03/21 05:31:25;;;;;;;5.00;3.78;;;;;;;4.12;45.92;99414.25;5071472;28;20059;-60
2021/03/21 05:33:54;;;;;;;5.72;4.05;;;;;;;4.14;46.03;99415.78;5071484;28;20068;-61
2021/03/21 05:36:34;;;;;;;7.80;4.65;;;;;;;4.20;46.37;99419.63;5071435;28;20048;-61
2021/03/21 05:39:12;;;;;;;8.25;4.38;;;;;;;4.25;46.35;99420.09;5075160;28;20040;-60
2021/03/21 05:42:15;;;;;;;7.03;4.32;;;;;;;4.34;46.32;99413.19;5075444;28;20051;-60
2021/03/21 05:45:26;;;;;;;7.35;4.35;;;;;;;4.30;46.46;99420.50;5063430;28;20363;-60
2021/03/21 05:48:22;;;;;;;5.88;3.92;;;;;;;4.33;46.38;99412.38;5074068;28;20052;-62
2021/03/21 05:51:22;;;;;;;6.18;4.47;;;;;;;4.33;46.49;99425.47;5074275;28;20044;-60
2021/03/21 05:54:26;;;;;;;7.28;4.70;;;;;;;4.22;46.60;99430.81;5092730;28;20104;-63
2021/03/21 05:57:30;;;;;;;6.93;4.65;;;;;;;4.27;47.01;99417.31;5089150;28;20669;-59
2021/03/21 06:00:46;;;;;;;7.57;4.15;;;;;;;4.28;46.91;99411.09;5075302;28;20048;-61
2021/03/21 06:03:42;;;;;;;7.57;4.47;;;;;;;4.31;46.63;99410.84;5044213;28;20048;-62
2021/03/21 06:06:41;;;;;;;8.80;4.38;;;;;;;4.35;46.58;99407.81;5074987;28;20460;-60
2021/03/21 06:09:24;;;;;;;7.75;4.55;;;;;;;4.44;46.35;99412.22;5074693;28;20054;-60
2021/03/21 06:12:08;;;;;;;6.57;4.30;;;;;;;4.35;46.44;99406.97;5075190;28;20041;-59
2021/03/21 06:14:54;;;;;;;6.07;4.20;;;;;;;4.34;46.45;99400.09;5074772;28;20483;-60
2021/03/21 06:17:59;;;;;;;6.90;4.15;;;;;;;4.37;46.54;99391.97;5074794;28;20285;-61
2021/03/21 06:21:00;;;;;;;7.07;4.22;;;;;;;4.46;46.32;99386.72;5073491;28;20048;-61
2021/03/21 06:23:42;;;;;;;9.32;4.72;;;;;;;4.57;46.16;99392.75;5075181;28;20041;-61
2021/03/21 06:26:16;;;;;;;6.72;4.70;;;;;;;4.62;45.88;99380.94;5074840;28;20497;-61
2021/03/21 06:29:18;;;;;;;6.10;4.50;;;;;;;4.60;45.84;99382.84;5074796;28;20090;-61
2021/03/21 06:32:08;;;;;;;9.35;5.00;;;;;;;4.70;45.53;99381.06;5062187;28;20095;-58
2021/03/21 06:34:43;;;;;;;5.72;4.32;;;;;;;4.76;45.42;99374.41;5074296;28;20044;-60
2021/03/21 06:37:40;;;;;;;7.35;4.60;;;;;;;4.80;45.53;99370.53;5074562;28;20119;-60
2021/03/21 06:40:19;;;;;;;9.10;5.72;;;;;;;4.84;45.56;99368.47;5073034;28;20466;-59
2021/03/21 06:43:20;;;;;;;9.65;5.20;;;;;;;4.85;45.50;99367.50;5074506;28;20044;-61
2021/03/21 06:46:19;;;;;;;6.85;4.50;;;;;;;4.80;45.56;99356.63;5074319;28;20047;-59
2021/03/21 06:49:29;;;;;;;7.45;4.88;;;;;;;4.86;45.71;99362.13;5073183;28;20064;-58
2021/03/21 06:52:02;;;;;;;8.90;4.45;;;;;;;4.91;45.71;99366.94;5074283;28;20048;-58
2021/03/21 06:54:51;;;;;;;6.47;4.50;;;;;;;4.86;45.86;99364.75;5074170;28;20128;-60
2021/03/21 06:57:55;;;;;;;5.47;4.85;;;;;;;4.89;46.09;99367.06;5074525;28;20037;-58
2021/03/21 07:00:52;;;;;;;7.35;4.78;;;;;;;4.96;46.23;99368.16;5074523;28;20044;-62
2021/03/21 07:04:11;;;;;;;7.97;5.25;;;;;;;4.78;46.55;99372.50;5074360;28;20055;-62
2021/03/21 07:07:31;;;;;;;10.32;5.03;;;;;;;4.81;46.79;99366.13;5032990;28;20186;-62
2021/03/21 07:10:34;;;;;;;7.45;5.50;;;;;;;4.86;46.70;99359.50;5033218;28;20056;-60
2021/03/21 07:13:59;;;;;;;8.32;5.70;;;;;;;4.90;46.84;99366.13;5074959;28;20045;-60
2021/03/21 07:16:44;;;;;;;;;;;;;;;4.84;47.05;99364.03;4993822;28;20043;-59
2021/03/21 07:19:46;;;;;;;9.55;5.78;;;;;;;4.92;47.21;99356.31;5065253;28;19924;-59
2021/03/21 07:22:40;;;;;;;10.57;6.20;;;;;;;4.95;47.32;99348.16;5072331;28;20056;-60
2021/03/21 07:25:41;;;;;;;9.25;6.43;;;;;;;5.01;47.51;99331.03;5073970;28;20078;-61
2021/03/21 07:28:21;;;;;;;11.40;7.72;;;;;;;5.13;47.59;99324.63;5073876;28;20509;-61
2021/03/21 07:31:00;;;;;;;11.02;7.07;;;;;;;5.18;47.84;99309.31;5074445;28;20045;-62
2021/03/21 07:33:39;;;;;;;12.95;7.75;;;;;;;5.32;47.99;99313.25;5072756;28;20072;-59
2021/03/21 07:36:17;;;;;;;10.63;7.68;;;;;;;5.44;48.05;99314.69;5072542;28;20045;-59
2021/03/21 07:39:25;;;;;;;10.80;7.75;;;;;;;5.28;48.29;99317.13;5072412;28;20482;-61
2021/03/21 07:42:20;;;;;;;11.27;8.13;;;;;;;5.26;48.74;99315.59;5062974;28;20056;-61
2021/03/21 07:45:13;;;;;;;9.75;7.70;;;;;;;5.35;48.74;99307.72;5074240;28;20041;-61
2021/03/21 07:47:51;;;;;;;10.93;7.57;;;;;;;5.32;49.00;99308.00;5061396;28;20056;-60
2021/03/21 07:50:28;;;;;;;9.38;7.47;;;;;;;5.30;49.33;99324.84;5075026;28;20105;-60
2021/03/21 07:53:08;;;;;;;9.93;7.57;;;;;;;5.36;49.32;99321.63;5073632;28;20047;-60
2021/03/21 07:55:45;;;;;;;10.93;8.30;;;;;;;5.37;49.39;99331.97;5073759;28;20074;-61
2021/03/21 07:58:18;;;;;;;13.25;7.40;;;;;;;5.34;49.49;99337.50;5073438;28;20041;-63
2021/03/21 08:00:46;;;;;;;11.15;7.95;;;;;;;5.30;49.95;99333.50;5073358;28;20041;-62
2021/03/21 08:03:36;;;;;;;10.98;7.80;;;;;;;5.21;50.26;99327.34;5073514;28;20161;-61
2021/03/21 08:06:12;;;;;;;10.07;7.90;;;;;;;5.14;50.47;99334.16;5068370;28;20118;-61
2021/03/21 08:08:45;;;;;;;9.15;7.47;;;;;;;5.12;51.09;99338.72;5072968;28;20135;-60
2021/03/21 08:11:18;;;;;;;12.30;8.15;;;;;;;5.13;50.96;99345.59;5072815;28;20039;-61
2021/03/21 08:13:51;;;;;;;9.73;7.15;;;;;;;5.12;50.94;99345.75;5072513;28;20542;-63
2021/03/21 08:16:24;;;;;;;11.55;8.45;;;;;;;5.14;51.29;99347.28;5072296;28;20060;-59
2021/03/21 08:18:51;;;;;;;10.40;7.72;;;;;;;5.07;51.50;99353.22;5072256;28;20055;-59
2021/03/21 08:21:25;;;;;;;9.63;7.85;;;;;;;5.11;51.63;99344.94;5071945;28;20080;-59
2021/03/21 08:23:52;;;;;;;9.93;7.20;;;;;;;5.14;52.21;99346.41;5073177;28;20058;-61
2021/03/21 08:26:26;;;;;;;10.43;7.45;;;;;;;5.16;53.12;99344.50;5072147;28;20040;-60
2021/03/21 08:28:59;;;;;;;8.80;6.90;;;;;;;5.19;53.32;99344.22;5070797;28;20098;-63
2021/03/21 08:31:31;;;;;;;9.50;7.32;;;;;;;5.15;53.64;99341.06;5072191;28;20040;-62
2021/03/21 08:34:33;;;;;;;10.85;7.78;;;;;;;5.17;54.58;99336.47;5072244;28;20131;-60
2021/03/21 08:37:03;;;;;;;10.38;7.50;;;;;;;5.34;53.85;99329.63;5072145;28;20044;-61
2021/03/21 08:39:37;;;;;;;11.02;8.13;;;;;;;5.54;54.24;99332.97;5072150;28;20098;-61
2021/03/21 08:42:06;;;;;;;13.20;7.65;;;;;;;5.66;53.93;99323.09;5072330;28;20490;-61
2021/03/21 08:44:40;;;;;;;13.55;7.57;;;;;;;5.82;54.00;99327.69;5072153;28;20041;-61
2021/03/21 08:47:16;;;;;;;9.35;7.05;;;;;;;5.93;54.02;99332.75;5072195;28;20397;-61
2021/03/21 08:49:48;;;;;;;10.00;7.70;;;;;;;5.87;54.31;99334.13;5071876;28;20037;-62
2021/03/21 08:52:27;;;;;;;9.75;7.45;;;;;;;5.76;54.58;99331.75;5072121;28;20044;-61
2021/03/21 08:54:54;;;;;;;10.10;7.38;;;;;;;5.84;54.69;99336.25;5071870;28;20391;-59
2021/03/21 08:57:31;;;;;;;9.52;7.03;;;;;;;6.01;54.45;99332.00;5071839;28;20387;-59
2021/03/21 09:00:16;;;;;;;8.27;6.90;;;;;;;5.96;54.57;99340.34;5071984;28;20051;-58
2021/03/21 09:02:44;;;;;;;9.07;7.40;;;;;;;5.92;54.64;99334.56;5070811;28;20048;-61
2021/03/21 09:05:14;;;;;;;10.38;8.25;;;;;;;6.00;54.64;99331.19;5071729;28;20047;-60
2021/03/21 09:07:43;;;;;;;8.80;7.70;;;;;;;6.07;54.60;99339.28;5071758;28;20036;-61
2021/03/21 09:10:27;;;;;;;12.55;8.48;;;;;;;6.00;54.81;99336.44;5071655;28;20124;-58
2021/03/21 09:13:15;;;;;;;10.15;7.45;;;;;;;5.81;55.03;99345.25;5073915;28;20415;-60
2021/03/21 09:15:43;;;;;;;10.63;7.40;;;;;;;5.81;55.32;99340.00;5076076;28;20413;-59
2021/03/21 09:18:25;;;;;;;11.10;7.38;;;;;;;5.89;55.44;99337.44;5075953;28;20040;-62
2021/03/21 09:21:18;;;;;;;9.75;7.03;;;;;;;5.97;55.69;99336.72;5075982;28;20048;-59
2021/03/21 09:23:48;;;;;;;11.05;7.78;;;;;;;6.10;55.40;99326.66;5066094;28;20578;-61
2021/03/21 09:26:31;;;;;;;12.38;6.95;;;;;;;6.17;55.86;99325.09;5074482;28;20113;-58
2021/03/21 09:29:08;;;;;;;8.43;7.13;;;;;;;6.19;55.83;99333.63;5075561;28;20094;-62
2021/03/21 09:31:36;;;;;;;9.93;7.22;;;;;;;6.34;55.86;99326.06;5075826;28;20292;-60
2021/03/21 09:34:11;;;;;;;9.65;7.07;;;;;;;6.46;56.39;99324.00;5089102;28;20079;-62
2021/03/21 09:36:43;;;;;;;10.13;7.45;;;;;;;6.61;56.50;99325.09;5090588;28;20048;-60
2021/03/21 09:39:15;;;;;;;8.38;7.10;;;;;;;6.65;56.99;99322.97;5079205;28;20414;-60
2021/03/21 09:41:42;;;;;;;11.85;7.78;;;;;;;6.91;57.18;99336.94;5075704;28;20052;-61
2021/03/21 09:44:31;;;;;;;8.63;7.25;;;;;;;7.07;57.13;99330.94;5074328;28;20075;-60
2021/03/21 09:47:17;;;;;;;9.07;7.57;;;;;;;6.97;57.20;99326.75;5075601;28;20044;-59
2021/03/21 09:49:50;;;;;;;12.15;8.48;;;;;;;7.04;57.22;99335.69;5075033;28;20048;-60
2021/03/21 09:52:26;;;;;;;10.00;7.47;;;;;;;6.75;57.77;99344.72;5075513;28;20048;-59
2021/03/21 09:55:02;;;;;;;8.95;7.60;;;;;;;6.84;57.92;99345.59;5074332;28;20060;-59
2021/03/21 09:57:58;;;;;;;13.10;9.20;;;;;;;6.87;58.08;99337.41;5075388;28;20508;-59
2021/03/21 10:00:32;;;;;;;9.63;6.90;;;;;;;6.69;58.25;99329.56;5075066;28;20053;-59
2021/03/21 10:03:03;;;;;;;9.98;7.65;;;;;;;6.59;58.65;99329.66;5075172;28;20047;-59
2021/03/21 10:05:38;;;;;;;12.27;8.00;;;;;;;6.68;58.86;99314.78;5074825;28;20040;-59
2021/03/21 10:08:16;;;;;;;8.90;7.47;;;;;;;6.88;58.38;99307.50;5074782;28;20399;-59
2021/03/21 10:10:52;;;;;;;9.85;7.65;;;;;;;7.11;58.00;99313.06;5074681;28;20040;-59
2021/03/21 10:13:29;;;;;;;8.95;7.40;;;;;;;7.50;57.70;99308.06;5074851;28;20534;-59
2021/03/21 10:16:25;;;;;;;9.70;8.70;;;;;;;7.59;57.53;99307.13;5074922;28;20055;-59
2021/03/21 10:18:54;;;;;;;11.43;7.70;;;;;;;7.64;57.06;99306.66;5069964;28;20041;-58
2021/03/21 10:21:36;;;;;;;9.25;7.28;;;;;;;7.67;57.16;99304.50;5074711;28;20412;-61
2021/03/21 10:24:30;;;;;;;10.55;8.05;;;;;;;7.75;56.88;99303.69;5073354;28;20067;-61
2021/03/21 10:27:38;;;;;;;10.07;8.10;;;;;;;7.60;57.52;99294.78;5074813;28;20053;-62
2021/03/21 10:30:13;;;;;;;10.60;8.05;;;;;;;7.57;58.97;99293.28;5074478;28;20387;-63
2021/03/21 10:32:43;;;;;;;13.35;8.48;;;;;;;7.54;59.42;99301.50;5074698;28;20044;-62
2021/03/21 10:35:51;;;;;;;9.20;7.55;;;;;;;7.54;59.96;99290.97;5073194;28;20079;-62
2021/03/21 10:38:48;;;;;;;10.60;8.05;;;;;;;7.57;60.57;99289.84;5073215;28;20052;-62
2021/03/21 10:41:56;;;;;;;11.73;8.13;;;;;;;7.55;60.68;99282.13;5074473;28;20049;-63
2021/03/21 10:44:57;;;;;;;12.20;9.48;;;;;;;7.55;60.88;99273.38;5074107;28;20494;-62
2021/03/21 10:47:43;;;;;;;11.15;8.50;;;;;;;7.41;61.31;99274.84;5073012;28;20072;-62
2021/03/21 10:50:30;;;;;;;9.50;8.32;;;;;;;7.40;61.49;99281.91;5074198;28;20402;-63
2021/03/21 10:53:17;;;;;;;17.30;14.40;;;;;;;7.30;62.20;99262.81;5074263;28;20044;-64
2021/03/21 10:56:01;;;;;;;10.52;8.75;;;;;;;7.24;62.67;99262.63;5074059;28;20040;-63
2021/03/21 10:58:39;;;;;;;10.68;8.02;;;;;;;7.19;62.79;99266.56;5074126;28;20066;-63
2021/03/21 11:01:39;;;;;;;9.25;7.63;;;;;;;7.26;62.67;99268.53;5074078;28;20513;-62
2021/03/21 11:04:32;;;;;;;10.20;8.43;;;;;;;7.25;62.72;99273.00;5074315;28;20098;-62
2021/03/21 11:07:04;;;;;;;12.40;8.48;;;;;;;7.34;62.46;99273.81;5072912;28;20048;-63
2021/03/21 11:09:33;;;;;;;12.10;8.73;;;;;;;7.37;62.05;99276.97;5074568;28;20079;-63
2021/03/21 11:12:03;;;;;;;9.40;8.43;;;;;;;7.44;62.13;99285.06;5072595;28;20135;-62
2021/03/21 11:14:34;;;;;;;8.48;7.55;;;;;;;7.45;61.94;99292.78;5073755;28;20046;-62
2021/03/21 11:17:03;;;;;;;9.05;6.15;;;;;;;7.44;62.43;99291.13;5073829;28;20055;-62
2021/03/21 11:19:47;;;;;;;7.20;5.82;;;;;;;7.47;62.36;99294.41;5073592;28;20055;-62
2021/03/21 11:22:23;;;;;;;7.15;5.57;;;;;;;7.38;62.61;99304.91;5072820;28;20106;-63
2021/03/21 11:24:50;;;;;;;6.85;5.70;;;;;;;7.37;62.54;99313.78;5073056;28;20040;-63
2021/03/21 11:27:26;;;;;;;7.05;5.82;;;;;;;7.31;62.79;99303.91;5074101;28;20041;-62
2021/03/21 11:29:53;;;;;;;6.55;5.18;;;;;;;7.33;62.68;99301.94;5073294;28;20037;-63
2021/03/21 11:32:22;;;;;;;13.30;8.80;;;;;;;7.38;62.77;99299.66;5073456;28;20048;-62
2021/03/21 11:35:01;;;;;;;6.72;5.22;;;;;;;7.45;62.36;99292.78;5072690;28;20427;-63
2021/03/21 11:37:35;;;;;;;6.32;4.75;;;;;;;7.53;63.04;99296.41;5073255;28;20128;-63
2021/03/21 11:40:04;;;;;;;;;;;;;;;7.55;62.68;99302.31;5073613;28;20053;-63
2021/03/21 11:42:34;;;;;;;5.70;4.68;;;;;;;7.63;62.68;99284.78;5073278;28;20037;-63
2021/03/21 11:45:17;;;;;;;4.25;3.70;;;;;;;7.78;62.01;99274.41;5073139;28;20055;-63
2021/03/21 11:47:46;;;;;;;5.07;3.58;;;;;;;7.68;61.46;99277.22;5073247;28;20549;-63
2021/03/21 11:50:20;;;;;;;3.97;3.53;;;;;;;7.68;61.77;99290.38;5073197;28;20476;-63
2021/03/21 11:52:48;;;;;;;4.50;3.78;;;;;;;7.55;61.35;99294.44;5073315;28;20059;-62
2021/03/21 11:55:18;;;;;;;3.95;3.55;;;;;;;7.49;61.40;99282.75;5073496;28;20044;-62
2021/03/21 11:58:01;;;;;;;6.15;4.70;;;;;;;7.55;61.10;99294.44;5073194;28;20036;-63
2021/03/21 12:00:31;;;;;;;4.97;4.13;;;;;;;7.52;61.29;99289.50;5073398;28;20044;-63
2021/03/21 12:03:04;;;;;;;5.03;4.10;;;;;;;7.54;61.32;99296.25;5073358;28;20691;-64
2021/03/21 12:05:35;;;;;;;5.35;4.28;;;;;;;7.48;61.01;99293.44;5072953;28;20109;-62
2021/03/21 12:08:21;;;;;;;5.90;4.53;;;;;;;7.57;60.89;99292.47;5073170;28;20040;-62
2021/03/21 12:10:48;;;;;;;6.13;4.00;;;;;;;7.64;59.65;99288.22;5073113;28;20044;-63
2021/03/21 12:13:33;;;;;;;4.97;4.25;;;;;;;7.87;58.43;99285.75;5071616;28;20045;-62
2021/03/21 12:16:02;;;;;;;5.82;4.28;;;;;;;7.98;58.39;99293.34;5072531;28;20056;-63
2021/03/21 12:18:30;;;;;;;4.18;3.67;;;;;;;8.13;58.00;99275.09;5072360;28;20048;-62
2021/03/21 12:21:09;;;;;;;5.90;4.07;;;;;;;8.23;56.65;99264.38;5072337;28;20132;-62
2021/03/21 12:23:41;;;;;;;4.03;3.60;;;;;;;8.22;55.40;99255.66;5072552;28;20040;-62
2021/03/21 12:26:19;;;;;;;10.23;4.30;;;;;;;8.27;55.65;99247.25;5072605;28;20088;-63
2021/03/21 12:28:52;;;;;;;4.90;3.83;;;;;;;8.49;55.61;99251.88;5072331;28;20044;-63